createdAt,value
2023-04-11T00:00:16.291Z,30.80
2023-04-11T00:00:47.770Z,30.89
2023-04-11T00:01:19.191Z,30.88
2023-04-11T00:01:50.621Z,31.30
2023-04-11T00:02:22.189Z,30.58
2023-04-11T00:02:53.871Z,31.10
2023-04-11T00:03:25.567Z,31.02
2023-04-11T00:03:57.376Z,30.98
2023-04-11T00:04:29.062Z,31.36
2023-04-11T00:05:00.770Z,30.97
2023-04-11T00:05:32.328Z,30.81
2023-04-11T00:06:03.760Z,31.25
2023-04-11T00:06:35.188Z,31.45
2023-04-11T00:07:06.611Z,31.01
2023-04-11T00:07:38.018Z,31.14
2023-04-11T00:08:09.458Z,30.92
2023-04-11T00:08:40.853Z,30.97
2023-04-11T00:09:12.267Z,31.09
2023-04-11T00:09:43.690Z,31.37
2023-04-11T00:10:15.093Z,31.06
2023-04-11T00:10:46.502Z,31.20
2023-04-11T00:11:17.923Z,31.06
2023-04-11T00:11:49.332Z,30.73
2023-04-11T00:12:20.746Z,31.53
2023-04-11T00:12:52.162Z,30.85
2023-04-11T00:13:23.557Z,31.18
2023-04-11T00:13:55.074Z,31.25
2023-04-11T00:14:26.469Z,31.13
2023-04-11T00:14:57.891Z,31.21
2023-04-11T00:15:29.312Z,30.86
2023-04-11T00:16:00.762Z,31.09
2023-04-11T00:16:32.333Z,30.98
2023-04-11T00:17:03.754Z,31.18
2023-04-11T00:17:35.187Z,31.40
2023-04-11T00:18:06.637Z,30.82
2023-04-11T00:18:38.067Z,31.24
2023-04-11T00:19:09.610Z,31.17
2023-04-11T00:19:41.054Z,31.11
2023-04-11T00:20:12.443Z,30.87
2023-04-11T00:20:43.841Z,31.11
2023-04-11T00:21:15.248Z,30.85
2023-04-11T00:21:46.686Z,31.09
2023-04-11T00:22:18.075Z,31.24
2023-04-11T00:22:49.511Z,31.50
2023-04-11T00:23:20.930Z,31.33
2023-04-11T00:23:52.327Z,30.81
2023-04-11T00:24:23.725Z,31.04
2023-04-11T00:24:55.133Z,31.08
2023-04-11T00:25:26.548Z,31.45
2023-04-11T00:25:57.955Z,30.79
2023-04-11T00:26:29.389Z,30.79
2023-04-11T00:27:00.811Z,30.86
2023-04-11T00:27:32.218Z,31.45
2023-04-11T00:28:03.612Z,31.15
2023-04-11T00:28:35.037Z,30.94
2023-04-11T00:29:06.429Z,30.89
2023-04-11T00:29:37.851Z,31.43
2023-04-11T00:30:09.257Z,31.21
2023-04-11T00:30:40.665Z,30.92
2023-04-11T00:31:12.086Z,30.89
2023-04-11T00:31:43.550Z,31.24
2023-04-11T00:32:15.046Z,30.72
2023-04-11T00:32:46.495Z,31.14
2023-04-11T00:33:17.918Z,30.84
2023-04-11T00:33:49.319Z,30.96
2023-04-11T00:34:20.726Z,30.98
2023-04-11T00:34:52.129Z,31.43
2023-04-11T00:35:23.533Z,31.24
2023-04-11T00:35:55.022Z,31.24
2023-04-11T00:36:26.494Z,31.35
2023-04-11T00:36:57.970Z,30.77
2023-04-11T00:37:29.566Z,30.89
2023-04-11T00:38:00.962Z,31.37
2023-04-11T00:38:32.351Z,31.08
2023-04-11T00:39:03.762Z,31.31
2023-04-11T00:39:35.168Z,31.18
2023-04-11T00:40:06.592Z,31.03
2023-04-11T00:40:37.994Z,31.42
2023-04-11T00:41:09.402Z,31.22
2023-04-11T00:41:40.822Z,31.11
2023-04-11T00:42:12.250Z,31.07
2023-04-11T00:42:43.725Z,31.37
2023-04-11T00:43:15.141Z,31.63
2023-04-11T00:43:46.532Z,30.79
2023-04-11T00:44:17.921Z,31.08
2023-04-11T00:44:49.343Z,31.20
2023-04-11T00:45:20.762Z,30.99
2023-04-11T00:45:52.242Z,30.83
2023-04-11T00:46:23.830Z,31.57
2023-04-11T00:46:55.310Z,31.17
2023-04-11T00:47:26.739Z,30.94
2023-04-11T00:47:58.230Z,31.48
2023-04-11T00:48:29.622Z,31.36
2023-04-11T00:49:01.011Z,31.11
2023-04-11T00:49:32.426Z,31.08
2023-04-11T00:50:03.827Z,31.36
2023-04-11T00:50:35.233Z,31.11
2023-04-11T00:51:06.613Z,31.12
2023-04-11T00:51:38.021Z,31.15
2023-04-11T00:52:09.438Z,31.09
2023-04-11T00:52:40.897Z,30.80
2023-04-11T00:53:12.319Z,31.25
2023-04-11T00:53:43.743Z,31.13
2023-04-11T00:54:15.140Z,31.42
2023-04-11T00:54:46.533Z,31.13
2023-04-11T00:55:17.944Z,31.19
2023-04-11T00:55:49.342Z,31.51
2023-04-11T00:56:20.755Z,31.47
2023-04-11T00:56:52.168Z,30.86
2023-04-11T00:57:23.610Z,31.51
2023-04-11T00:57:55.035Z,31.27
2023-04-11T00:58:26.471Z,31.07
2023-04-11T00:58:57.915Z,31.19
2023-04-11T00:59:29.356Z,31.20
2023-04-11T01:00:00.766Z,31.06
2023-04-11T01:00:32.171Z,30.76
2023-04-11T01:01:03.604Z,31.33
2023-04-11T01:01:35.088Z,31.00
2023-04-11T01:02:06.585Z,31.31
2023-04-11T01:02:38.142Z,31.07
2023-04-11T01:03:09.858Z,30.89
2023-04-11T01:03:41.519Z,31.24
2023-04-11T01:04:13.147Z,31.09
2023-04-11T01:04:44.627Z,30.84
2023-04-11T01:05:16.058Z,30.82
2023-04-11T01:05:47.455Z,31.47
2023-04-11T01:06:18.871Z,31.26
2023-04-11T01:06:50.254Z,31.55
2023-04-11T01:07:21.642Z,31.22
2023-04-11T01:07:53.047Z,31.25
2023-04-11T01:08:24.457Z,30.89
2023-04-11T01:08:56.151Z,31.12
2023-04-11T01:09:27.750Z,30.94
2023-04-11T01:09:59.158Z,31.00
2023-04-11T01:10:30.553Z,31.27
2023-04-11T01:11:02.024Z,31.33
2023-04-11T01:11:33.433Z,31.25
2023-04-11T01:12:04.827Z,31.12
2023-04-11T01:12:36.236Z,31.06
2023-04-11T01:13:07.648Z,31.27
2023-04-11T01:13:39.094Z,31.20
2023-04-11T01:14:10.513Z,31.19
2023-04-11T01:14:41.921Z,31.27
2023-04-11T01:15:13.359Z,31.16
2023-04-11T01:15:44.760Z,31.31
2023-04-11T01:16:16.220Z,31.70
2023-04-11T01:16:47.707Z,31.15
2023-04-11T01:17:19.105Z,30.99
2023-04-11T01:17:50.568Z,31.43
2023-04-11T01:18:22.000Z,31.27
2023-04-11T01:18:53.450Z,31.02
2023-04-11T01:19:24.985Z,31.49
2023-04-11T01:19:56.381Z,30.97
2023-04-11T01:20:27.799Z,31.51
2023-04-11T01:20:59.232Z,31.14
2023-04-11T01:21:30.636Z,31.06
2023-04-11T01:22:02.072Z,31.48
2023-04-11T01:22:33.641Z,31.45
2023-04-11T01:23:05.089Z,31.25
2023-04-11T01:23:36.521Z,31.26
2023-04-11T01:24:07.909Z,31.50
2023-04-11T01:24:39.353Z,31.19
2023-04-11T01:25:10.763Z,30.94
2023-04-11T01:25:42.177Z,31.34
2023-04-11T01:26:13.570Z,30.95
2023-04-11T01:26:44.974Z,31.59
2023-04-11T01:27:16.370Z,31.45
2023-04-11T01:27:47.764Z,31.14
2023-04-11T01:28:19.188Z,31.25
2023-04-11T01:28:50.602Z,31.15
2023-04-11T01:29:22.028Z,31.25
2023-04-11T01:29:53.454Z,31.25
2023-04-11T01:30:24.855Z,31.25
2023-04-11T01:30:56.386Z,31.15
2023-04-11T01:31:27.865Z,30.99
2023-04-11T01:31:59.271Z,30.99
2023-04-11T01:32:30.712Z,31.31
2023-04-11T01:33:02.196Z,30.85
2023-04-11T01:33:33.722Z,31.29
2023-04-11T01:34:05.131Z,31.47
2023-04-11T01:34:36.558Z,31.16
2023-04-11T01:35:07.955Z,31.28
2023-04-11T01:35:39.423Z,31.08
2023-04-11T01:36:10.876Z,31.56
2023-04-11T01:36:42.292Z,31.61
2023-04-11T01:37:13.714Z,31.00
2023-04-11T01:37:45.120Z,31.51
2023-04-11T01:38:16.525Z,31.27
2023-04-11T01:38:47.923Z,31.15
2023-04-11T01:39:19.336Z,31.62
2023-04-11T01:39:50.786Z,30.93
2023-04-11T01:40:22.195Z,31.45
2023-04-11T01:40:53.603Z,31.33
2023-04-11T01:41:25.025Z,31.24
2023-04-11T01:41:57.655Z,31.30
2023-04-11T01:42:29.178Z,31.17
2023-04-11T01:43:00.594Z,31.22
2023-04-11T01:43:32.031Z,31.49
2023-04-11T01:44:03.454Z,31.40
2023-04-11T01:44:34.865Z,31.16
2023-04-11T01:45:06.293Z,31.65
2023-04-11T01:45:37.705Z,31.17
2023-04-11T01:46:09.133Z,31.48
2023-04-11T01:46:40.536Z,30.93
2023-04-11T01:47:11.940Z,31.32
2023-04-11T01:47:43.446Z,31.43
2023-04-11T01:48:14.963Z,31.08
2023-04-11T01:48:46.496Z,31.37
2023-04-11T01:49:17.935Z,30.94
2023-04-11T01:49:49.348Z,31.77
2023-04-11T01:50:20.787Z,31.56
2023-04-11T01:50:52.205Z,31.34
2023-04-11T01:51:23.617Z,31.64
2023-04-11T01:51:55.017Z,31.35
2023-04-11T01:52:26.451Z,31.44
2023-04-11T01:52:57.854Z,31.47
2023-04-11T01:53:29.269Z,31.51
2023-04-11T01:54:00.664Z,31.13
2023-04-11T01:54:32.083Z,31.18
2023-04-11T01:55:03.517Z,31.27
2023-04-11T01:55:34.937Z,31.61
2023-04-11T01:56:06.357Z,31.31
2023-04-11T01:56:37.759Z,31.25
2023-04-11T01:57:09.158Z,31.19
2023-04-11T01:57:40.568Z,31.51
2023-04-11T01:58:11.978Z,31.50
2023-04-11T01:58:43.392Z,31.56
2023-04-11T01:59:14.807Z,31.20
2023-04-11T01:59:46.215Z,31.39
2023-04-11T02:00:17.632Z,31.07
2023-04-11T02:00:49.040Z,31.69
2023-04-11T02:01:20.527Z,31.02
2023-04-11T02:01:52.095Z,31.48
2023-04-11T02:02:23.625Z,31.53
2023-04-11T02:02:55.215Z,31.45
2023-04-11T02:03:26.932Z,31.20
2023-04-11T02:03:58.475Z,31.81
2023-04-11T02:04:30.099Z,31.79
2023-04-11T02:05:01.584Z,31.17
2023-04-11T02:05:33.023Z,31.28
2023-04-11T02:06:04.499Z,31.39
2023-04-11T02:06:35.906Z,31.54
2023-04-11T02:07:07.336Z,31.33
2023-04-11T02:07:38.744Z,31.64
2023-04-11T02:08:10.171Z,31.73
2023-04-11T02:08:41.570Z,31.59
2023-04-11T02:09:12.973Z,31.46
2023-04-11T02:09:44.385Z,31.77
2023-04-11T02:10:15.782Z,31.54
2023-04-11T02:10:47.173Z,30.98
2023-04-11T02:11:18.622Z,31.57
2023-04-11T02:11:50.039Z,32.02
2023-04-11T02:12:21.491Z,31.83
2023-04-11T02:12:52.921Z,31.14
2023-04-11T02:13:24.342Z,31.42
2023-04-11T02:13:55.750Z,31.70
2023-04-11T02:14:27.161Z,31.34
2023-04-11T02:14:58.555Z,31.69
2023-04-11T02:15:29.969Z,31.26
2023-04-11T02:16:01.421Z,31.24
2023-04-11T02:16:32.879Z,31.44
2023-04-11T02:17:04.282Z,31.16
2023-04-11T02:17:35.759Z,31.36
2023-04-11T02:18:07.248Z,31.42
2023-04-11T02:18:38.669Z,31.09
2023-04-11T02:19:10.074Z,31.44
2023-04-11T02:19:41.488Z,31.44
2023-04-11T02:20:12.888Z,31.34
2023-04-11T02:20:44.296Z,31.75
2023-04-11T02:21:15.685Z,31.35
2023-04-11T02:21:47.096Z,31.11
2023-04-11T02:22:18.501Z,31.47
2023-04-11T02:22:49.915Z,31.21
2023-04-11T02:23:22.153Z,31.26
2023-04-11T02:23:55.006Z,31.48
2023-04-11T02:24:26.415Z,31.42
2023-04-11T02:24:57.814Z,31.27
2023-04-11T02:25:29.230Z,31.12
2023-04-11T02:26:00.642Z,31.14
2023-04-11T02:26:32.053Z,31.18
2023-04-11T02:27:03.471Z,31.67
2023-04-11T02:27:34.909Z,31.36
2023-04-11T02:28:08.135Z,31.09
2023-04-11T02:28:39.794Z,31.14
2023-04-11T02:29:11.211Z,30.91
2023-04-11T02:29:42.645Z,31.14
2023-04-11T02:30:14.056Z,31.39
2023-04-11T02:30:45.546Z,31.34
2023-04-11T02:31:17.184Z,31.41
2023-04-11T02:31:48.733Z,31.54
2023-04-11T02:32:20.326Z,31.36
2023-04-11T02:32:51.861Z,31.62
2023-04-11T02:33:23.326Z,31.62
2023-04-11T02:33:54.733Z,31.38
2023-04-11T02:34:26.167Z,31.70
2023-04-11T02:34:57.595Z,31.52
2023-04-11T02:35:28.998Z,31.79
2023-04-11T02:36:00.471Z,31.62
2023-04-11T02:36:31.947Z,31.78
2023-04-11T02:37:03.357Z,31.57
2023-04-11T02:37:34.775Z,31.80
2023-04-11T02:38:06.169Z,31.48
2023-04-11T02:38:37.587Z,31.62
2023-04-11T02:39:08.993Z,31.17
2023-04-11T02:39:40.449Z,31.08
2023-04-11T02:40:11.873Z,31.14
2023-04-11T02:40:43.294Z,31.08
2023-04-11T02:41:14.703Z,31.11
2023-04-11T02:41:46.122Z,31.17
2023-04-11T02:42:17.518Z,31.15
2023-04-11T02:42:48.905Z,31.36
2023-04-11T02:43:20.306Z,31.48
2023-04-11T02:43:51.707Z,31.74
2023-04-11T02:44:23.148Z,31.47
2023-04-11T02:44:54.636Z,31.74
2023-04-11T02:45:26.056Z,31.64
2023-04-11T02:46:09.556Z,31.45
2023-04-11T02:46:43.481Z,31.61
2023-04-11T02:47:14.962Z,31.50
2023-04-11T02:47:46.402Z,31.41
2023-04-11T02:48:17.828Z,31.73
2023-04-11T02:48:49.238Z,31.47
2023-04-11T02:49:20.636Z,31.89
2023-04-11T02:49:52.064Z,31.05
2023-04-11T02:50:23.520Z,31.56
2023-04-11T02:50:54.943Z,31.57
2023-04-11T02:51:26.370Z,31.34
2023-04-11T02:51:57.875Z,31.49
2023-04-11T02:52:29.349Z,31.55
2023-04-11T02:53:00.742Z,31.67
2023-04-11T02:53:32.141Z,31.96
2023-04-11T02:54:03.550Z,31.36
2023-04-11T02:54:34.970Z,31.62
2023-04-11T02:55:06.392Z,31.55
2023-04-11T02:55:37.854Z,31.76
2023-04-11T02:56:09.265Z,31.51
2023-04-11T02:56:40.674Z,31.10
2023-04-11T02:57:12.082Z,31.92
2023-04-11T02:57:43.469Z,31.81
2023-04-11T02:58:14.856Z,31.36
2023-04-11T02:58:46.270Z,31.68
2023-04-11T02:59:17.678Z,31.50
2023-04-11T02:59:49.097Z,31.50
2023-04-11T03:00:20.508Z,31.52
2023-04-11T03:00:51.946Z,31.84
2023-04-11T03:01:23.350Z,31.32
2023-04-11T03:01:54.874Z,31.72
2023-04-11T03:02:26.463Z,31.60
2023-04-11T03:02:58.008Z,31.21
2023-04-11T03:03:29.505Z,31.30
2023-04-11T03:04:01.092Z,31.60
2023-04-11T03:04:32.757Z,31.44
2023-04-11T03:05:04.295Z,31.90
2023-04-11T03:05:35.712Z,31.80
2023-04-11T03:06:07.121Z,31.76
2023-04-11T03:06:38.525Z,31.28
2023-04-11T03:07:09.945Z,31.28
2023-04-11T03:07:41.338Z,31.62
2023-04-11T03:08:12.738Z,31.18
2023-04-11T03:08:44.151Z,31.74
2023-04-11T03:09:15.561Z,31.34
2023-04-11T03:09:46.962Z,31.47
2023-04-11T03:10:18.387Z,31.36
2023-04-11T03:10:49.820Z,31.73
2023-04-11T03:11:21.266Z,31.84
2023-04-11T03:11:52.702Z,31.33
2023-04-11T03:12:24.101Z,31.47
2023-04-11T03:12:55.515Z,31.42
2023-04-11T03:13:26.911Z,31.88
2023-04-11T03:13:58.313Z,31.93
2023-04-11T03:14:29.729Z,31.43
2023-04-11T03:15:01.181Z,31.86
2023-04-11T03:15:32.624Z,31.85
2023-04-11T03:16:04.210Z,31.95
2023-04-11T03:16:35.726Z,31.63
2023-04-11T03:17:07.127Z,31.55
2023-04-11T03:17:38.557Z,31.51
2023-04-11T03:18:10.003Z,31.40
2023-04-11T03:18:41.392Z,31.40
2023-04-11T03:19:12.783Z,31.43
2023-04-11T03:19:44.174Z,31.92
2023-04-11T03:20:15.584Z,32.11
2023-04-11T03:20:47.029Z,31.52
2023-04-11T03:21:18.425Z,31.41
2023-04-11T03:21:49.855Z,31.47
2023-04-11T03:22:21.274Z,31.31
2023-04-11T03:22:52.697Z,31.71
2023-04-11T03:23:24.120Z,31.41
2023-04-11T03:23:55.525Z,31.54
2023-04-11T03:24:26.946Z,31.43
2023-04-11T03:24:58.339Z,31.89
2023-04-11T03:25:29.746Z,31.50
2023-04-11T03:26:01.166Z,31.79
2023-04-11T03:26:32.631Z,31.87
2023-04-11T03:27:04.131Z,31.55
2023-04-11T03:27:35.553Z,31.53
2023-04-11T03:28:06.968Z,31.71
2023-04-11T03:28:38.383Z,31.30
2023-04-11T03:29:09.791Z,31.81
2023-04-11T03:29:41.183Z,31.47
2023-04-11T03:30:12.612Z,31.59
2023-04-11T03:30:44.014Z,31.26
2023-04-11T03:31:15.454Z,31.78
2023-04-11T03:31:46.938Z,31.30
2023-04-11T03:32:18.400Z,31.81
2023-04-11T03:32:49.917Z,31.38
2023-04-11T03:33:21.390Z,31.94
2023-04-11T03:33:52.784Z,31.33
2023-04-11T03:34:24.191Z,31.82
2023-04-11T03:34:55.607Z,31.34
2023-04-11T03:35:27.009Z,31.83
2023-04-11T03:35:58.452Z,31.51
2023-04-11T03:36:29.911Z,31.96
2023-04-11T03:37:01.331Z,31.85
2023-04-11T03:37:32.778Z,31.70
2023-04-11T03:38:04.187Z,31.63
2023-04-11T03:38:35.595Z,31.29
2023-04-11T03:39:07.031Z,31.90
2023-04-11T03:39:38.440Z,31.92
2023-04-11T03:40:09.915Z,31.78
2023-04-11T03:40:41.330Z,31.33
2023-04-11T03:41:12.752Z,31.27
2023-04-11T03:41:44.158Z,31.68
2023-04-11T03:42:15.588Z,31.39
2023-04-11T03:42:47.001Z,31.56
2023-04-11T03:43:18.432Z,31.91
2023-04-11T03:43:50.033Z,31.34
2023-04-11T03:44:21.430Z,31.27
2023-04-11T03:44:52.853Z,31.35
2023-04-11T03:45:24.250Z,31.52
2023-04-11T03:45:55.638Z,31.26
2023-04-11T03:46:27.086Z,31.40
2023-04-11T03:46:58.652Z,31.87
2023-04-11T03:47:30.169Z,31.35
2023-04-11T03:48:01.675Z,31.41
2023-04-11T03:48:33.140Z,31.59
2023-04-11T03:49:04.571Z,31.83
2023-04-11T03:49:35.965Z,31.29
2023-04-11T03:50:07.381Z,31.54
2023-04-11T03:50:38.781Z,31.46
2023-04-11T03:51:10.170Z,31.83
2023-04-11T03:51:41.571Z,31.48
2023-04-11T03:52:12.978Z,31.38
2023-04-11T03:52:44.462Z,31.92
2023-04-11T03:53:15.859Z,31.71
2023-04-11T03:53:47.284Z,31.79
2023-04-11T03:54:18.701Z,31.24
2023-04-11T03:54:50.137Z,31.16
2023-04-11T03:55:21.575Z,31.25
2023-04-11T03:55:52.961Z,31.64
2023-04-11T03:56:24.377Z,31.81
2023-04-11T03:56:55.802Z,31.50
2023-04-11T03:57:27.208Z,31.76
2023-04-11T03:57:58.597Z,31.51
2023-04-11T03:58:30.059Z,31.35
2023-04-11T03:59:01.465Z,31.69
2023-04-11T03:59:32.883Z,31.67
2023-04-11T04:00:04.376Z,31.60
2023-04-11T04:00:35.797Z,31.90
2023-04-11T04:01:07.188Z,31.67
2023-04-11T04:01:38.693Z,31.58
2023-04-11T04:02:10.297Z,31.37
2023-04-11T04:02:42.052Z,31.23
2023-04-11T04:03:13.866Z,31.45
2023-04-11T04:03:45.870Z,31.71
2023-04-11T04:04:17.543Z,31.35
2023-04-11T04:04:49.098Z,31.68
2023-04-11T04:05:20.598Z,31.72
2023-04-11T04:05:52.009Z,31.59
2023-04-11T04:06:23.417Z,30.97
2023-04-11T04:06:54.845Z,31.93
2023-04-11T04:07:26.243Z,31.77
2023-04-11T04:07:57.657Z,31.22
2023-04-11T04:08:29.066Z,32.05
2023-04-11T04:09:00.521Z,31.32
2023-04-11T04:09:31.960Z,31.84
2023-04-11T04:10:03.372Z,31.60
2023-04-11T04:10:34.772Z,31.29
2023-04-11T04:11:06.183Z,31.41
2023-04-11T04:11:37.586Z,31.19
2023-04-11T04:12:08.985Z,31.81
2023-04-11T04:12:40.373Z,31.94
2023-04-11T04:13:11.787Z,31.20
2023-04-11T04:13:43.210Z,32.00
2023-04-11T04:14:14.649Z,32.02
2023-04-11T04:14:46.058Z,31.63
2023-04-11T04:15:17.471Z,31.67
2023-04-11T04:15:48.898Z,31.78
2023-04-11T04:16:20.349Z,31.28
2023-04-11T04:16:51.817Z,31.79
2023-04-11T04:17:23.351Z,31.53
2023-04-11T04:17:54.875Z,31.61
2023-04-11T04:18:26.428Z,31.67
2023-04-11T04:18:57.837Z,31.42
2023-04-11T04:19:29.282Z,31.59
2023-04-11T04:20:00.726Z,31.45
2023-04-11T04:20:32.149Z,31.72
2023-04-11T04:21:03.591Z,31.90
2023-04-11T04:21:35.021Z,31.70
2023-04-11T04:22:06.434Z,31.31
2023-04-11T04:22:37.846Z,31.63
2023-04-11T04:23:09.273Z,31.70
2023-04-11T04:23:40.711Z,32.11
2023-04-11T04:24:12.129Z,31.95
2023-04-11T04:24:43.570Z,31.33
2023-04-11T04:25:14.959Z,31.66
2023-04-11T04:25:46.390Z,31.59
2023-04-11T04:26:17.844Z,31.74
2023-04-11T04:26:49.286Z,31.57
2023-04-11T04:27:20.692Z,31.39
2023-04-11T04:27:52.087Z,31.50
2023-04-11T04:28:23.482Z,31.72
2023-04-11T04:28:54.946Z,31.78
2023-04-11T04:29:26.339Z,31.72
2023-04-11T04:30:03.359Z,31.93
2023-04-11T04:30:35.773Z,31.57
2023-04-11T04:31:07.290Z,32.05
2023-04-11T04:31:38.726Z,31.68
2023-04-11T04:32:10.314Z,32.11
2023-04-11T04:32:41.740Z,31.68
2023-04-11T04:33:13.159Z,31.88
2023-04-11T04:33:44.606Z,31.87
2023-04-11T04:34:16.013Z,31.76
2023-04-11T04:34:47.425Z,31.26
2023-04-11T04:35:18.838Z,31.64
2023-04-11T04:35:50.267Z,31.69
2023-04-11T04:36:21.687Z,31.76
2023-04-11T04:36:53.102Z,31.80
2023-04-11T04:37:24.519Z,31.92
2023-04-11T04:37:55.936Z,31.67
2023-04-11T04:38:27.328Z,31.20
2023-04-11T04:38:58.765Z,31.68
2023-04-11T04:39:30.185Z,31.95
2023-04-11T04:40:01.615Z,31.59
2023-04-11T04:40:33.058Z,31.96
2023-04-11T04:41:04.473Z,31.70
2023-04-11T04:41:35.899Z,31.43
2023-04-11T04:42:07.305Z,31.54
2023-04-11T04:42:38.710Z,31.96
2023-04-11T04:43:10.120Z,31.89
2023-04-11T04:43:41.500Z,31.45
2023-04-11T04:44:12.917Z,31.30
2023-04-11T04:44:44.328Z,31.35
2023-04-11T04:45:15.732Z,32.24
2023-04-11T04:45:47.199Z,31.31
2023-04-11T04:46:18.696Z,31.34
2023-04-11T04:46:50.122Z,31.75
2023-04-11T04:47:21.525Z,31.94
2023-04-11T04:47:52.977Z,32.03
2023-04-11T04:48:24.422Z,32.11
2023-04-11T04:48:55.854Z,31.87
2023-04-11T04:49:27.287Z,32.59
2023-04-11T04:49:58.723Z,32.49
2023-04-11T04:50:30.149Z,32.34
2023-04-11T04:51:01.564Z,32.12
2023-04-11T04:51:32.968Z,31.98
2023-04-11T04:52:04.389Z,31.71
2023-04-11T04:52:35.841Z,32.05
2023-04-11T04:53:07.242Z,32.24
2023-04-11T04:53:38.916Z,32.62
2023-04-11T04:54:10.474Z,32.41
2023-04-11T04:54:41.887Z,31.84
2023-04-11T04:55:13.292Z,32.30
2023-04-11T04:55:44.683Z,32.65
2023-04-11T04:56:16.108Z,32.26
2023-04-11T04:56:47.542Z,31.84
2023-04-11T04:57:18.947Z,31.65
2023-04-11T04:57:50.352Z,31.32
2023-04-11T04:58:21.817Z,31.97
2023-04-11T04:58:53.245Z,31.76
2023-04-11T04:59:24.667Z,31.88
2023-04-11T04:59:56.089Z,32.32
2023-04-11T05:00:27.523Z,31.40
2023-04-11T05:00:58.987Z,31.52
2023-04-11T05:01:30.444Z,31.94
2023-04-11T05:02:01.929Z,32.15
2023-04-11T05:02:33.528Z,32.34
2023-04-11T05:03:05.135Z,32.08
2023-04-11T05:03:36.734Z,31.53
2023-04-11T05:04:08.376Z,31.43
2023-04-11T05:04:39.805Z,32.24
2023-04-11T05:05:11.281Z,32.24
2023-04-11T05:05:42.696Z,32.52
2023-04-11T05:06:14.110Z,32.27
2023-04-11T05:06:45.508Z,31.75
2023-04-11T05:07:16.951Z,32.00
2023-04-11T05:07:48.388Z,32.34
2023-04-11T05:08:19.800Z,31.99
2023-04-11T05:08:51.207Z,31.76
2023-04-11T05:09:22.608Z,31.57
2023-04-11T05:09:54.002Z,32.16
2023-04-11T05:10:25.437Z,32.60
2023-04-11T05:10:56.847Z,31.88
2023-04-11T05:11:28.297Z,32.56
2023-04-11T05:11:59.692Z,32.08
2023-04-11T05:12:31.123Z,31.62
2023-04-11T05:13:02.547Z,31.57
2023-04-11T05:13:33.984Z,32.23
2023-04-11T05:14:05.437Z,31.61
2023-04-11T05:14:36.830Z,32.24
2023-04-11T05:15:08.223Z,32.55
2023-04-11T05:15:39.630Z,32.43
2023-04-11T05:16:11.090Z,31.60
2023-04-11T05:16:42.584Z,32.00
2023-04-11T05:17:14.060Z,32.81
2023-04-11T05:17:45.534Z,31.94
2023-04-11T05:18:17.003Z,32.84
2023-04-11T05:18:48.406Z,31.87
2023-04-11T05:19:19.837Z,31.99
2023-04-11T05:19:51.263Z,32.37
2023-04-11T05:20:22.653Z,31.87
2023-04-11T05:20:54.073Z,31.36
2023-04-11T05:21:25.477Z,31.55
2023-04-11T05:21:56.905Z,31.86
2023-04-11T05:22:28.301Z,31.86
2023-04-11T05:22:59.723Z,32.41
2023-04-11T05:23:31.134Z,31.91
2023-04-11T05:24:02.566Z,31.69
2023-04-11T05:24:33.988Z,32.07
2023-04-11T05:25:05.452Z,32.32
2023-04-11T05:25:36.859Z,32.10
2023-04-11T05:26:08.285Z,32.64
2023-04-11T05:26:39.702Z,32.13
2023-04-11T05:27:11.138Z,32.59
2023-04-11T05:27:42.531Z,32.03
2023-04-11T05:28:13.953Z,31.38
2023-04-11T05:28:45.350Z,32.27
2023-04-11T05:29:16.737Z,32.50
2023-04-11T05:29:48.148Z,32.25
2023-04-11T05:30:19.545Z,32.27
2023-04-11T05:30:51.025Z,32.24
2023-04-11T05:31:22.611Z,31.93
2023-04-11T05:31:54.073Z,32.41
2023-04-11T05:32:25.571Z,31.96
2023-04-11T05:32:57.010Z,32.74
2023-04-11T05:33:28.438Z,32.66
2023-04-11T05:33:59.835Z,32.58
2023-04-11T05:34:31.252Z,32.36
2023-04-11T05:35:02.659Z,31.99
2023-04-11T05:35:34.126Z,32.52
2023-04-11T05:36:05.597Z,32.61
2023-04-11T05:36:37.061Z,32.32
2023-04-11T05:37:08.464Z,32.01
2023-04-11T05:37:39.893Z,32.50
2023-04-11T05:38:11.305Z,32.84
2023-04-11T05:38:42.721Z,32.16
2023-04-11T05:39:14.134Z,32.07
2023-04-11T05:39:45.535Z,32.65
2023-04-11T05:40:16.944Z,32.52
2023-04-11T05:40:48.360Z,32.24
2023-04-11T05:41:19.788Z,32.58
2023-04-11T05:41:51.199Z,32.42
2023-04-11T05:42:22.620Z,31.96
2023-04-11T05:42:54.051Z,31.96
2023-04-11T05:43:25.448Z,32.28
2023-04-11T05:43:57.114Z,32.18
2023-04-11T05:44:28.815Z,32.38
2023-04-11T05:45:00.245Z,32.16
2023-04-11T05:45:31.674Z,33.18
2023-04-11T05:46:03.126Z,32.30
2023-04-11T05:46:34.635Z,31.92
2023-04-11T05:47:06.097Z,31.81
2023-04-11T05:47:37.538Z,32.01
2023-04-11T05:48:09.033Z,32.68
2023-04-11T05:48:40.486Z,31.80
2023-04-11T05:49:11.893Z,32.22
2023-04-11T05:49:43.313Z,32.42
2023-04-11T05:50:14.740Z,32.38
2023-04-11T05:50:46.163Z,32.77
2023-04-11T05:51:17.588Z,32.87
2023-04-11T05:51:49.015Z,31.62
2023-04-11T05:52:20.433Z,31.58
2023-04-11T05:52:51.892Z,32.15
2023-04-11T05:53:23.309Z,32.39
2023-04-11T05:53:54.980Z,31.92
2023-04-11T05:54:26.603Z,31.45
2023-04-11T05:54:58.059Z,31.44
2023-04-11T05:55:29.501Z,32.38
2023-04-11T05:56:00.957Z,32.30
2023-04-11T05:56:32.349Z,32.61
2023-04-11T05:57:03.780Z,32.39
2023-04-11T05:57:35.185Z,32.31
2023-04-11T05:58:06.609Z,32.60
2023-04-11T05:58:38.016Z,32.13
2023-04-11T05:59:09.413Z,32.23
2023-04-11T05:59:40.828Z,32.56
2023-04-11T06:00:12.237Z,32.79
2023-04-11T06:00:43.652Z,32.61
2023-04-11T06:01:15.133Z,32.37
2023-04-11T06:01:46.561Z,31.63
2023-04-11T06:02:18.122Z,32.01
2023-04-11T06:02:49.716Z,31.77
2023-04-11T06:03:21.300Z,32.33
2023-04-11T06:03:53.088Z,32.59
2023-04-11T06:04:24.911Z,32.21
2023-04-11T06:04:56.502Z,32.51
2023-04-11T06:05:27.965Z,32.71
2023-04-11T06:05:59.379Z,32.30
2023-04-11T06:06:30.808Z,32.84
2023-04-11T06:07:02.286Z,32.53
2023-04-11T06:07:33.764Z,32.46
2023-04-11T06:08:05.203Z,32.60
2023-04-11T06:08:36.632Z,32.41
2023-04-11T06:09:08.060Z,32.25
2023-04-11T06:09:39.450Z,32.09
2023-04-11T06:10:10.889Z,32.62
2023-04-11T06:10:42.289Z,32.80
2023-04-11T06:11:13.715Z,32.73
2023-04-11T06:11:45.130Z,32.54
2023-04-11T06:12:16.539Z,32.57
2023-04-11T06:12:47.951Z,32.30
2023-04-11T06:13:19.377Z,32.04
2023-04-11T06:13:50.778Z,32.01
2023-04-11T06:14:22.198Z,32.12
2023-04-11T06:14:53.598Z,32.89
2023-04-11T06:15:24.988Z,32.46
2023-04-11T06:15:56.446Z,32.68
2023-04-11T06:16:27.925Z,32.52
2023-04-11T06:16:59.330Z,32.64
2023-04-11T06:17:30.777Z,32.39
2023-04-11T06:18:02.241Z,32.41
2023-04-11T06:18:33.724Z,32.68
2023-04-11T06:19:05.139Z,32.69
2023-04-11T06:19:36.555Z,32.84
2023-04-11T06:20:07.944Z,32.89
2023-04-11T06:20:39.349Z,32.79
2023-04-11T06:21:10.739Z,32.11
2023-04-11T06:21:42.194Z,32.38
2023-04-11T06:22:13.595Z,32.37
2023-04-11T06:22:45.013Z,32.76
2023-04-11T06:23:16.433Z,32.75
2023-04-11T06:23:47.859Z,32.97
2023-04-11T06:24:19.268Z,32.76
2023-04-11T06:24:50.688Z,32.89
2023-04-11T06:25:22.133Z,32.69
2023-04-11T06:25:53.561Z,32.67
2023-04-11T06:26:24.974Z,32.54
2023-04-11T06:26:56.391Z,32.72
2023-04-11T06:27:27.790Z,33.07
2023-04-11T06:27:59.205Z,32.96
2023-04-11T06:28:30.618Z,32.29
2023-04-11T06:29:02.048Z,32.62
2023-04-11T06:29:33.473Z,32.72
2023-04-11T06:30:04.882Z,32.81
2023-04-11T06:30:36.288Z,32.64
2023-04-11T06:31:07.744Z,32.79
2023-04-11T06:31:39.202Z,32.71
2023-04-11T06:32:10.675Z,33.32
2023-04-11T06:32:42.184Z,33.10
2023-04-11T06:33:13.704Z,33.33
2023-04-11T06:33:45.120Z,33.22
2023-04-11T06:34:16.576Z,32.43
2023-04-11T06:34:47.986Z,32.84
2023-04-11T06:35:19.396Z,32.68
2023-04-11T06:35:50.863Z,32.67
2023-04-11T06:36:22.268Z,32.84
2023-04-11T06:36:53.686Z,32.47
2023-04-11T06:37:25.103Z,32.94
2023-04-11T06:37:56.518Z,32.95
2023-04-11T06:38:27.918Z,33.01
2023-04-11T06:38:59.352Z,32.88
2023-04-11T06:39:30.748Z,32.94
2023-04-11T06:40:02.174Z,32.93
2023-04-11T06:40:33.635Z,33.29
2023-04-11T06:41:05.037Z,32.61
2023-04-11T06:41:36.435Z,32.79
2023-04-11T06:42:07.856Z,32.46
2023-04-11T06:42:39.267Z,33.29
2023-04-11T06:43:10.668Z,33.14
2023-04-11T06:43:42.090Z,33.04
2023-04-11T06:44:13.506Z,33.04
2023-04-11T06:44:45.018Z,32.41
2023-04-11T06:45:16.509Z,32.95